createdAt,value
2023-02-17T00:01:21.994Z,16.65
2023-02-17T00:03:52.263Z,18.77
2023-02-17T00:06:21.291Z,15.53
2023-02-17T00:08:48.145Z,18.50
2023-02-17T00:11:15.515Z,16.77
2023-02-17T00:13:42.548Z,17.80
2023-02-17T00:16:12.644Z,17.17
2023-02-17T00:18:39.088Z,20.00
2023-02-17T00:21:20.188Z,22.85
2023-02-17T00:23:48.091Z,17.80
2023-02-17T00:26:15.765Z,21.77
2023-02-17T00:28:42.501Z,20.25
2023-02-17T00:31:11.017Z,22.33
2023-02-17T00:33:37.784Z,24.40
2023-02-17T00:36:11.078Z,19.73
2023-02-17T00:38:37.508Z,20.90
2023-02-17T00:41:04.183Z,18.08
2023-02-17T00:43:30.574Z,21.27
2023-02-17T00:45:57.042Z,18.55
2023-02-17T00:48:23.713Z,19.90
2023-02-17T00:50:50.148Z,18.50
2023-02-17T00:53:16.561Z,22.08
2023-02-17T00:55:43.061Z,19.40
2023-02-17T00:58:09.492Z,21.98
2023-02-17T01:00:35.972Z,22.55
2023-02-17T01:03:02.498Z,19.38
2023-02-17T01:05:28.964Z,21.02
2023-02-17T01:07:55.961Z,21.17
2023-02-17T01:10:22.351Z,21.52
2023-02-17T01:12:48.764Z,16.63
2023-02-17T01:15:15.195Z,20.70
2023-02-17T01:17:41.610Z,20.83
2023-02-17T01:20:08.291Z,18.47
2023-02-17T01:22:34.704Z,24.23
2023-02-17T01:25:01.086Z,24.85
2023-02-17T01:27:27.621Z,21.73
2023-02-17T01:29:54.320Z,23.42
2023-02-17T01:32:20.760Z,20.07
2023-02-17T01:34:48.922Z,26.98
2023-02-17T01:37:15.358Z,21.95
2023-02-17T01:39:41.850Z,24.45
2023-02-17T01:42:15.741Z,23.63
2023-02-17T01:45:19.429Z,19.70
2023-02-17T01:47:57.539Z,20.73
2023-02-17T01:50:29.606Z,19.80
2023-02-17T01:52:58.008Z,17.65
2023-02-17T01:55:25.722Z,24.30
2023-02-17T01:57:56.435Z,23.50
2023-02-17T02:00:25.793Z,25.73
2023-02-17T02:02:52.733Z,20.95
2023-02-17T02:05:20.753Z,19.63
2023-02-17T02:07:49.579Z,22.23
2023-02-17T02:10:18.790Z,22.07
2023-02-17T02:12:45.270Z,25.30
2023-02-17T02:15:15.346Z,25.52
2023-02-17T02:18:02.542Z,20.42
2023-02-17T02:20:50.779Z,26.73
2023-02-17T02:23:49.766Z,20.13
2023-02-17T02:26:37.493Z,22.55
2023-02-17T02:29:38.332Z,21.10
2023-02-17T02:32:24.166Z,20.13
2023-02-17T02:35:06.733Z,24.10
2023-02-17T02:37:39.579Z,22.63
2023-02-17T02:40:08.969Z,20.73
2023-02-17T02:42:35.943Z,20.45
2023-02-17T02:45:05.472Z,21.73
2023-02-17T02:47:48.880Z,19.00
2023-02-17T02:50:34.748Z,16.63
2023-02-17T02:53:38.833Z,17.70
2023-02-17T02:56:36.397Z,20.90
2023-02-17T02:59:18.604Z,18.90
2023-02-17T03:02:06.468Z,17.95
2023-02-17T03:04:47.341Z,17.30
2023-02-17T03:07:21.142Z,18.80
2023-02-17T03:09:52.642Z,18.67
2023-02-17T03:12:20.599Z,26.15
2023-02-17T03:14:50.094Z,21.05
2023-02-17T03:17:16.563Z,19.23
2023-02-17T03:19:45.597Z,23.35
2023-02-17T03:22:25.740Z,18.85
2023-02-17T03:24:52.279Z,18.45
2023-02-17T03:27:18.726Z,21.15
2023-02-17T03:29:45.259Z,20.33
2023-02-17T03:32:11.978Z,25.55
2023-02-17T03:34:38.477Z,24.92
2023-02-17T03:37:04.872Z,23.10
2023-02-17T03:39:31.759Z,22.10
2023-02-17T03:41:58.273Z,25.13
2023-02-17T03:44:24.762Z,23.33
2023-02-17T03:46:51.136Z,25.70
2023-02-17T03:49:17.584Z,27.20
2023-02-17T03:51:44.062Z,25.10
2023-02-17T03:54:10.444Z,25.77
2023-02-17T03:56:37.227Z,21.23
2023-02-17T03:59:04.027Z,32.25
2023-02-17T04:01:30.599Z,26.75
2023-02-17T04:03:57.027Z,27.85
2023-02-17T04:06:23.459Z,25.13
2023-02-17T04:08:49.963Z,26.33
2023-02-17T04:11:16.425Z,26.10
2023-02-17T04:13:42.855Z,24.48
2023-02-17T04:16:10.176Z,29.40
2023-02-17T04:18:37.071Z,24.17
2023-02-17T04:21:05.175Z,26.95
2023-02-17T04:23:31.818Z,25.85
2023-02-17T04:25:58.281Z,25.70
2023-02-17T04:28:24.676Z,24.63
2023-02-17T04:30:51.398Z,21.87
2023-02-17T04:33:18.791Z,25.15
2023-02-17T04:35:45.298Z,23.70
2023-02-17T04:38:12.161Z,24.83
2023-02-17T04:40:39.961Z,22.75
2023-02-17T04:43:06.724Z,21.07
2023-02-17T04:45:34.361Z,24.75
2023-02-17T04:48:00.754Z,23.45
2023-02-17T04:50:27.197Z,24.25
2023-02-17T04:52:53.680Z,27.58
2023-02-17T04:55:20.138Z,20.77
2023-02-17T04:57:46.704Z,19.92
2023-02-17T05:00:13.537Z,21.08
2023-02-17T05:02:40.086Z,20.60
2023-02-17T05:05:07.135Z,19.52
2023-02-17T05:07:34.016Z,18.80
2023-02-17T05:10:00.373Z,23.20
2023-02-17T05:12:26.828Z,22.25
2023-02-17T05:14:53.249Z,23.10
2023-02-17T05:17:19.659Z,21.77
2023-02-17T05:19:46.017Z,20.50
2023-02-17T05:22:14.988Z,23.30
2023-02-17T05:24:41.452Z,20.27
2023-02-17T05:27:07.954Z,19.52
2023-02-17T05:29:34.734Z,22.35
2023-02-17T05:32:01.171Z,20.37
2023-02-17T05:34:27.585Z,25.02
2023-02-17T05:36:54.019Z,29.05
2023-02-17T05:39:20.563Z,26.70
2023-02-17T05:41:47.173Z,26.77
2023-02-17T05:44:13.642Z,27.03
2023-02-17T05:46:40.232Z,24.33
2023-02-17T05:49:06.884Z,21.67
2023-02-17T05:51:33.509Z,25.80
2023-02-17T05:53:59.917Z,24.23
2023-02-17T05:56:26.331Z,24.20
2023-02-17T05:58:52.866Z,21.05
2023-02-17T06:01:19.559Z,20.45
2023-02-17T06:03:46.124Z,22.52
2023-02-17T06:06:12.685Z,27.17
2023-02-17T06:08:39.667Z,27.47
2023-02-17T06:11:06.480Z,30.63
2023-02-17T06:13:32.972Z,32.45
2023-02-17T06:15:59.676Z,33.10
2023-02-17T06:18:26.062Z,27.77
2023-02-17T06:20:55.976Z,28.77
2023-02-17T06:23:23.375Z,29.50
2023-02-17T06:25:49.778Z,30.15
2023-02-17T06:28:16.512Z,30.13
2023-02-17T06:30:42.970Z,29.50
2023-02-17T06:33:09.398Z,31.20
2023-02-17T06:35:35.949Z,27.45
2023-02-17T06:38:02.360Z,26.23
2023-02-17T06:40:28.930Z,22.20
2023-02-17T06:42:55.397Z,28.55
2023-02-17T06:45:21.837Z,23.80
2023-02-17T06:47:48.332Z,23.30
2023-02-17T06:50:15.873Z,22.52
2023-02-17T06:52:42.482Z,23.45
2023-02-17T06:55:09.182Z,19.90
2023-02-17T06:57:35.660Z,22.53
2023-02-17T07:00:02.616Z,21.73
2023-02-17T07:02:29.203Z,26.60
2023-02-17T07:04:55.744Z,22.67
2023-02-17T07:07:22.236Z,24.45
2023-02-17T07:09:48.706Z,21.60
2023-02-17T07:12:15.295Z,20.17
2023-02-17T07:14:41.707Z,19.85
2023-02-17T07:17:08.203Z,17.70
2023-02-17T07:19:34.840Z,21.52
2023-02-17T07:22:02.453Z,16.30
2023-02-17T07:24:28.832Z,17.45
2023-02-17T07:26:56.296Z,17.33
2023-02-17T07:29:23.002Z,17.08
2023-02-17T07:31:49.412Z,13.55
2023-02-17T07:34:15.849Z,15.70
2023-02-17T07:36:42.216Z,17.48
2023-02-17T07:39:08.692Z,18.13
2023-02-17T07:41:35.101Z,14.85
2023-02-17T07:44:01.615Z,16.00
2023-02-17T07:46:28.038Z,13.93
2023-02-17T07:48:57.077Z,16.65
2023-02-17T07:51:24.698Z,15.20
2023-02-17T07:53:51.924Z,16.02
2023-02-17T07:56:21.476Z,11.70
2023-02-17T07:58:48.822Z,11.37
2023-02-17T08:01:16.807Z,13.27
2023-02-17T08:03:43.738Z,18.33
2023-02-17T08:06:18.602Z,14.50
2023-02-17T08:09:03.550Z,15.15
2023-02-17T08:11:49.999Z,11.93
2023-02-17T08:14:17.541Z,15.00
2023-02-17T08:16:44.028Z,14.85
2023-02-17T08:19:10.558Z,13.55
2023-02-17T08:21:37.059Z,12.80
2023-02-17T08:24:03.910Z,12.27
2023-02-17T08:26:30.465Z,11.43
2023-02-17T08:28:56.842Z,12.68
2023-02-17T08:31:25.443Z,11.18
2023-02-17T08:33:52.602Z,13.57
2023-02-17T08:36:22.296Z,14.40
2023-02-17T08:38:51.161Z,13.13
2023-02-17T08:41:34.758Z,13.25
2023-02-17T08:44:03.210Z,14.68
2023-02-17T08:46:30.426Z,11.00
2023-02-17T08:48:57.050Z,12.27
2023-02-17T08:51:26.079Z,14.35
2023-02-17T08:53:55.345Z,11.85
2023-02-17T08:56:23.336Z,10.38
2023-02-17T08:58:50.202Z,11.57
2023-02-17T09:01:19.032Z,14.63
2023-02-17T09:03:47.971Z,8.93
2023-02-17T09:06:15.757Z,11.98
2023-02-17T09:08:43.014Z,10.88
2023-02-17T09:11:10.260Z,10.70
2023-02-17T09:13:37.078Z,12.90
2023-02-17T09:16:04.844Z,11.32
2023-02-17T09:18:31.545Z,11.57
2023-02-17T09:21:00.405Z,11.48
2023-02-17T09:23:27.248Z,9.55
2023-02-17T09:26:10.117Z,10.20
2023-02-17T09:28:37.245Z,11.23
2023-02-17T09:31:11.504Z,11.80
2023-02-17T09:33:38.500Z,16.45
2023-02-17T09:36:07.417Z,9.15
2023-02-17T09:38:34.635Z,7.93
2023-02-17T09:41:15.883Z,8.80
2023-02-17T09:43:42.759Z,7.95
2023-02-17T09:46:16.803Z,8.57
2023-02-17T09:48:46.412Z,6.63
2023-02-17T09:51:28.962Z,8.67
2023-02-17T09:54:10.238Z,7.43
2023-02-17T09:56:43.195Z,8.82
2023-02-17T09:59:22.124Z,7.57
2023-02-17T10:01:51.702Z,8.73
2023-02-17T10:04:24.910Z,8.13
2023-02-17T10:06:59.402Z,7.65
2023-02-17T10:09:30.980Z,9.57
2023-02-17T10:12:03.978Z,6.70
2023-02-17T10:14:41.169Z,9.40
2023-02-17T10:17:24.959Z,7.60
2023-02-17T10:20:00.511Z,5.70
2023-02-17T10:22:27.200Z,6.97
2023-02-17T10:24:54.143Z,6.18
2023-02-17T10:27:23.470Z,6.32
2023-02-17T10:30:27.395Z,13.03
2023-02-17T10:33:12.865Z,8.82
2023-02-17T10:35:45.337Z,9.18
2023-02-17T10:38:33.687Z,6.07
2023-02-17T10:41:03.505Z,7.70
2023-02-17T10:43:33.540Z,6.33
2023-02-17T10:46:02.889Z,10.43
2023-02-17T10:48:51.663Z,7.45
2023-02-17T10:51:31.158Z,7.03
2023-02-17T10:54:06.067Z,7.72
2023-02-17T10:56:39.550Z,7.73
2023-02-17T10:59:20.853Z,7.50
2023-02-17T11:01:49.092Z,6.72
2023-02-17T11:04:15.632Z,8.90
2023-02-17T11:06:50.817Z,7.50
2023-02-17T11:09:18.769Z,5.77
2023-02-17T11:11:58.859Z,7.53
2023-02-17T11:14:31.191Z,11.00
2023-02-17T11:17:04.227Z,5.90
2023-02-17T11:19:35.966Z,8.98
2023-02-17T11:22:05.466Z,8.03
2023-02-17T11:24:34.575Z,6.65
2023-02-17T11:27:03.834Z,9.40
2023-02-17T11:29:30.979Z,7.88
2023-02-17T11:32:07.389Z,10.52
2023-02-17T11:34:37.021Z,11.33
2023-02-17T11:37:20.189Z,8.88
2023-02-17T11:39:49.663Z,7.00
2023-02-17T11:42:31.367Z,8.25
2023-02-17T11:45:00.118Z,7.70
2023-02-17T11:47:51.976Z,6.20
2023-02-17T11:50:58.406Z,7.80
2023-02-17T11:53:39.533Z,9.88
2023-02-17T11:56:13.280Z,9.23
2023-02-17T11:59:18.704Z,9.35
2023-02-17T12:02:14.116Z,8.53
2023-02-17T12:05:10.272Z,6.88
2023-02-17T12:07:57.526Z,9.93
2023-02-17T12:10:45.510Z,9.48
2023-02-17T12:13:14.555Z,6.53
2023-02-17T12:16:00.354Z,12.33
2023-02-17T12:18:45.233Z,9.38
2023-02-17T12:21:36.700Z,9.43
2023-02-17T12:24:05.945Z,10.63
2023-02-17T12:26:33.890Z,10.10
2023-02-17T12:29:24.953Z,12.20
2023-02-17T12:31:56.453Z,14.52
2023-02-17T12:34:35.306Z,11.43
2023-02-17T12:37:03.737Z,13.38
2023-02-17T12:39:48.804Z,10.88
2023-02-17T12:42:26.556Z,10.17
2023-02-17T12:45:01.122Z,14.10
2023-02-17T12:47:45.831Z,10.50
2023-02-17T12:50:30.012Z,12.63
2023-02-17T12:53:02.001Z,8.02
2023-02-17T12:55:38.764Z,11.43
2023-02-17T12:58:12.012Z,9.63
2023-02-17T13:00:42.561Z,14.65
2023-02-17T13:03:09.520Z,12.02
2023-02-17T13:05:48.423Z,9.82
2023-02-17T13:08:24.678Z,7.30
2023-02-17T13:11:11.213Z,13.85
2023-02-17T13:13:37.880Z,7.43
2023-02-17T13:16:12.727Z,9.77
2023-02-17T13:18:42.748Z,11.45
2023-02-17T13:21:48.232Z,13.63
2023-02-17T13:24:30.751Z,8.18
2023-02-17T13:26:57.369Z,8.75
2023-02-17T13:29:23.706Z,5.93
2023-02-17T13:31:57.551Z,6.30
2023-02-17T13:34:46.401Z,9.87
2023-02-17T13:37:17.741Z,12.55
2023-02-17T13:39:44.932Z,7.13
2023-02-17T13:42:45.044Z,7.93
2023-02-17T13:45:17.747Z,5.47
2023-02-17T13:47:47.026Z,9.13
2023-02-17T13:50:35.998Z,7.63
2023-02-17T13:53:21.253Z,5.38
2023-02-17T13:55:48.172Z,6.60
2023-02-17T13:58:14.571Z,6.88
2023-02-17T14:00:43.562Z,5.50
2023-02-17T14:03:20.809Z,7.25
2023-02-17T14:05:48.937Z,7.65
2023-02-17T14:08:39.146Z,7.88
2023-02-17T14:11:14.807Z,6.22
2023-02-17T14:13:47.168Z,8.80
2023-02-17T14:16:30.956Z,6.47
2023-02-17T14:19:18.099Z,6.75
2023-02-17T14:21:59.874Z,8.02
2023-02-17T14:24:37.951Z,8.13
2023-02-17T14:27:08.747Z,8.20
2023-02-17T14:29:46.589Z,5.30
2023-02-17T14:32:36.386Z,6.20
2023-02-17T14:35:29.086Z,8.38
2023-02-17T14:37:55.615Z,7.22
2023-02-17T14:40:24.460Z,6.00
2023-02-17T14:42:51.337Z,8.52
2023-02-17T14:45:19.119Z,7.07
2023-02-17T14:47:46.678Z,6.05
2023-02-17T14:50:13.853Z,7.00
2023-02-17T14:52:44.651Z,8.33
2023-02-17T14:55:18.417Z,8.77
2023-02-17T14:57:44.962Z,9.40
2023-02-17T15:00:13.922Z,6.22
2023-02-17T15:02:40.415Z,9.23
2023-02-17T15:05:07.896Z,7.37
2023-02-17T15:07:35.082Z,6.07
2023-02-17T15:10:01.842Z,5.43
2023-02-17T15:12:28.504Z,15.10
2023-02-17T15:14:54.953Z,3.92
2023-02-17T15:17:21.505Z,10.90
2023-02-17T15:19:51.980Z,6.80
2023-02-17T15:22:18.536Z,6.47
2023-02-17T15:24:44.986Z,5.57
2023-02-17T15:27:14.396Z,8.32
2023-02-17T15:29:41.283Z,6.27
2023-02-17T15:32:17.049Z,6.95
2023-02-17T15:34:43.814Z,4.07
2023-02-17T15:37:10.310Z,8.63
2023-02-17T15:39:36.881Z,4.80
2023-02-17T15:42:07.521Z,8.37
2023-02-17T15:44:45.542Z,6.32
2023-02-17T15:47:15.856Z,6.90
2023-02-17T15:49:42.500Z,7.63
2023-02-17T15:52:13.778Z,8.32
2023-02-17T15:54:42.584Z,7.43
2023-02-17T15:57:19.782Z,10.98
2023-02-17T15:59:46.513Z,6.97
2023-02-17T16:02:21.170Z,5.28
2023-02-17T16:04:48.376Z,12.30
2023-02-17T16:07:14.947Z,8.67
2023-02-17T16:09:41.592Z,9.05
2023-02-17T16:12:18.659Z,8.73
2023-02-17T16:14:45.647Z,5.68
2023-02-17T16:17:21.825Z,9.55
2023-02-17T16:19:51.234Z,8.00
2023-02-17T16:22:17.751Z,10.65
2023-02-17T16:24:44.264Z,9.35
2023-02-17T16:27:14.747Z,8.20
2023-02-17T16:29:45.452Z,8.82
2023-02-17T16:32:14.795Z,7.93
2023-02-17T16:34:41.873Z,10.20
2023-02-17T16:37:15.173Z,6.07
2023-02-17T16:39:43.030Z,10.18
2023-02-17T16:42:14.921Z,8.55
2023-02-17T16:44:41.390Z,9.87
2023-02-17T16:47:18.635Z,8.88
2023-02-17T16:49:47.363Z,12.50
2023-02-17T16:52:24.965Z,11.73
2023-02-17T16:54:51.390Z,10.15
2023-02-17T16:57:19.724Z,11.37
2023-02-17T16:59:47.144Z,7.93
2023-02-17T17:02:13.762Z,12.93
2023-02-17T17:04:40.224Z,6.55
2023-02-17T17:07:06.704Z,11.13
2023-02-17T17:09:33.097Z,13.67
2023-02-17T17:11:59.459Z,15.90
2023-02-17T17:14:25.900Z,11.27
2023-02-17T17:16:56.642Z,13.77
2023-02-17T17:19:23.102Z,8.98
2023-02-17T17:21:49.634Z,17.63
2023-02-17T17:24:17.215Z,10.80
2023-02-17T17:26:45.576Z,15.35
2023-02-17T17:29:14.345Z,15.90
2023-02-17T17:31:40.839Z,13.82
2023-02-17T17:34:07.455Z,12.13
2023-02-17T17:36:38.490Z,12.07
2023-02-17T17:39:08.048Z,11.77
2023-02-17T17:41:35.041Z,16.08
2023-02-17T17:44:01.427Z,12.85
2023-02-17T17:46:31.212Z,9.20
2023-02-17T17:48:59.484Z,17.40
2023-02-17T17:51:28.561Z,17.00
2023-02-17T17:53:55.682Z,13.30
2023-02-17T17:56:28.063Z,12.60
2023-02-17T17:58:55.263Z,10.40
2023-02-17T18:01:22.114Z,10.50
2023-02-17T18:03:49.213Z,10.57
2023-02-17T18:06:21.437Z,10.40
2023-02-17T18:08:49.708Z,12.70
2023-02-17T18:11:18.721Z,9.63
2023-02-17T18:13:47.813Z,11.40
2023-02-17T18:16:14.848Z,11.77
2023-02-17T18:18:41.810Z,11.23
2023-02-17T18:21:08.445Z,12.10
2023-02-17T18:23:34.971Z,14.77
2023-02-17T18:26:01.467Z,10.68
2023-02-17T18:28:28.253Z,8.50
2023-02-17T18:30:57.009Z,10.90
2023-02-17T18:33:23.660Z,15.60
2023-02-17T18:35:50.524Z,8.93
2023-02-17T18:38:17.452Z,9.73
2023-02-17T18:40:43.928Z,15.32
2023-02-17T18:43:10.439Z,12.10
2023-02-17T18:45:36.856Z,9.93
2023-02-17T18:48:03.481Z,12.03
2023-02-17T18:50:33.140Z,9.48
2023-02-17T18:53:00.351Z,14.45
2023-02-17T18:55:26.852Z,9.27
2023-02-17T18:57:54.042Z,7.15
2023-02-17T19:00:20.882Z,10.43
2023-02-17T19:02:47.635Z,9.98
2023-02-17T19:05:14.622Z,7.63
2023-02-17T19:07:41.044Z,11.93
2023-02-17T19:10:08.203Z,10.00
2023-02-17T19:12:34.793Z,10.70
2023-02-17T19:15:01.890Z,9.57
2023-02-17T19:17:28.327Z,12.50
2023-02-17T19:19:54.737Z,11.85
2023-02-17T19:22:21.186Z,12.93
2023-02-17T19:24:52.069Z,9.27
2023-02-17T19:27:18.698Z,14.23
2023-02-17T19:29:45.526Z,10.27
2023-02-17T19:32:12.132Z,12.40
2023-02-17T19:34:39.250Z,11.50
2023-02-17T19:37:05.923Z,11.70
2023-02-17T19:39:35.013Z,9.95
2023-02-17T19:42:03.079Z,4.97
2023-02-17T19:44:31.486Z,9.77
2023-02-17T19:46:58.422Z,12.65
2023-02-17T19:49:25.413Z,12.37
2023-02-17T19:51:53.837Z,12.35
2023-02-17T19:54:20.327Z,11.15
2023-02-17T19:56:48.913Z,14.35
2023-02-17T19:59:15.705Z,14.45
2023-02-17T20:01:43.446Z,17.30
2023-02-17T20:04:10.599Z,12.07
2023-02-17T20:06:45.668Z,15.00
2023-02-17T20:09:16.355Z,9.25
2023-02-17T20:11:43.597Z,11.65
2023-02-17T20:14:11.153Z,11.00
2023-02-17T20:16:37.964Z,13.32
2023-02-17T20:19:05.049Z,9.48
2023-02-17T20:21:35.450Z,19.95
2023-02-17T20:24:02.574Z,13.30
2023-02-17T20:26:32.228Z,12.33
2023-02-17T20:28:59.181Z,8.85
2023-02-17T20:31:26.149Z,17.50
2023-02-17T20:33:53.199Z,14.30
2023-02-17T20:36:21.808Z,16.50
2023-02-17T20:38:49.880Z,17.57
2023-02-17T20:41:19.645Z,17.70
2023-02-17T20:43:46.388Z,14.10
2023-02-17T20:46:25.017Z,16.60
2023-02-17T20:48:52.353Z,12.50
2023-02-17T20:51:19.703Z,18.87
2023-02-17T20:53:46.567Z,15.13
2023-02-17T20:56:16.633Z,14.68
2023-02-17T20:58:43.098Z,17.70
2023-02-17T21:01:09.959Z,12.38
2023-02-17T21:03:36.806Z,19.67
2023-02-17T21:06:06.678Z,12.70
2023-02-17T21:08:33.427Z,16.02
2023-02-17T21:10:59.851Z,11.80
2023-02-17T21:13:27.288Z,18.63
2023-02-17T21:15:54.941Z,15.83
2023-02-17T21:18:21.379Z,22.23
2023-02-17T21:20:47.780Z,18.25
2023-02-17T21:23:14.825Z,18.55
2023-02-17T21:25:41.182Z,16.65
2023-02-17T21:28:07.663Z,18.43
2023-02-17T21:30:34.173Z,14.55
2023-02-17T21:33:00.826Z,19.17
2023-02-17T21:35:27.334Z,18.05
2023-02-17T21:37:54.769Z,17.35
2023-02-17T21:40:21.286Z,19.50
2023-02-17T21:43:06.088Z,16.58
2023-02-17T21:45:38.295Z,21.50
2023-02-17T21:48:06.463Z,24.10
2023-02-17T21:50:33.426Z,21.95
2023-02-17T21:52:59.820Z,16.43
2023-02-17T21:55:26.488Z,13.18
2023-02-17T21:57:52.896Z,25.98
2023-02-17T22:00:19.669Z,20.00
2023-02-17T22:02:46.198Z,25.60
2023-02-17T22:05:12.708Z,20.73
2023-02-17T22:07:39.095Z,22.63
2023-02-17T22:10:06.623Z,21.17
2023-02-17T22:12:36.035Z,22.33
2023-02-17T22:15:04.653Z,24.55
2023-02-17T22:17:31.393Z,20.77
2023-02-17T22:19:59.122Z,19.02
2023-02-17T22:22:26.881Z,20.23
2023-02-17T22:24:53.562Z,17.85
2023-02-17T22:27:20.194Z,17.45
2023-02-17T22:29:46.712Z,22.93
2023-02-17T22:32:13.270Z,18.15
2023-02-17T22:34:39.719Z,19.92
2023-02-17T22:37:06.371Z,29.08
2023-02-17T22:39:32.998Z,21.30
2023-02-17T22:41:59.505Z,25.50
2023-02-17T22:44:26.012Z,21.83
2023-02-17T22:46:52.415Z,24.95
2023-02-17T22:49:18.934Z,24.92
2023-02-17T22:51:45.392Z,26.58
2023-02-17T22:54:11.787Z,26.77
2023-02-17T22:56:38.293Z,19.88
2023-02-17T22:59:05.736Z,25.73
2023-02-17T23:01:34.722Z,21.77
2023-02-17T23:04:02.001Z,24.60
2023-02-17T23:06:34.396Z,25.10
2023-02-17T23:09:01.892Z,27.50
2023-02-17T23:12:01.174Z,27.45
2023-02-17T23:14:32.531Z,24.55
2023-02-17T23:17:01.879Z,26.85
2023-02-17T23:19:28.920Z,27.60
2023-02-17T23:21:59.048Z,27.75
2023-02-17T23:24:26.322Z,26.27
2023-02-17T23:26:54.353Z,24.83
2023-02-17T23:29:21.533Z,28.88
2023-02-17T23:31:48.018Z,31.60
2023-02-17T23:34:16.140Z,31.95
2023-02-17T23:36:44.179Z,33.83
2023-02-17T23:39:10.963Z,26.80
2023-02-17T23:41:38.632Z,30.20
2023-02-17T23:44:07.727Z,25.10
2023-02-17T23:46:34.806Z,32.35
2023-02-17T23:49:01.374Z,34.08
2023-02-17T23:51:28.034Z,29.63
2023-02-17T23:53:54.534Z,29.55
2023-02-17T23:56:34.276Z,31.60
2023-02-17T23:59:01.282Z,30.90
